Terminal Aerodrome Forecast
Issued by NWS

Home | Current Version | Previous Version | Text Only | Print | Product List | Glossary On
Versions: 1 2 3 4 5 6 7 8 9 10 11 12 13 14 15 16 17 18 19 20
000
FTUS46 KSEW 211752
TAFCLM
TAF
KCLM 211752Z 2118/2218 28005KT P6SM BKN015 OVC020
     FM212000 30012G20KT P6SM SCT030 BKN200
     FM220400 26008KT P6SM SCT015
     FM220900 25006KT 6SM -SHRA BR SCT010 OVC015=

USA.gov is the U.S. government's official web portal to all federal, state and local government web resources and services.